Salacak — 3FBM4 — position and weather

sailwx.info

Track history (hours):
 
Tides and Currents Weather Stations Pressure Air Temp Water Temp Dewpoint Dewpoint Depression Visibility Wind Speed Wind Dir Waves Ship Positions

Salacak

Last reported at 2018-Apr-10 15:15 UTC. Time now 2018-Apr-26 17:18 UTC.
Position N 40°51' E 029°12'.
Warning: this ship's position is 16 days out of date.

Length 126 m; draft 5.6 m.

Type: Cargo ship. MMSI: 373532000.

Date/timePositionNaut miles runAvg speedWind from/ knotsBaromVisibWave heightAir tempDewpointWater temp
2018-Apr-10 15:15N 40°51' E 029°12'0 0.0
2018-Apr-10 14:57N 40°51' E 029°12'0 0.1
2018-Apr-10 14:29N 40°51' E 029°12'0 0.1
2018-Apr-10 13:59N 40°52' E 029°12'0 0.0
2018-Apr-10 13:29N 40°52' E 029°12'0 0.0
2018-Apr-10 12:47N 40°51' E 029°12'0 0.0
2018-Apr-10 12:29N 40°51' E 029°12'0 0.0
2018-Apr-10 11:59N 40°51' E 029°12'0 0.0
2018-Apr-10 11:17N 40°51' E 029°12'0 0.0
2018-Apr-10 10:59N 40°51' E 029°12'0 0.0
2018-Apr-10 10:29N 40°52' E 029°12'0 0.0
2018-Apr-10 08:59N 40°52' E 029°12'0 0.0
2018-Apr-10 08:29N 40°52' E 029°12'0 0.0
2018-Apr-10 07:53N 40°52' E 029°12'0 0.1
2018-Apr-10 07:29N 40°52' E 029°12'0 0.0
2018-Apr-10 06:59N 40°52' E 029°12'0 0.0
2018-Apr-10 06:29N 40°52' E 029°12'0 0.1
2018-Apr-10 05:59N 40°52' E 029°12'0 0.0
2018-Apr-10 05:29N 40°52' E 029°12'0 0.0
2018-Apr-10 04:59N 40°52' E 029°12'0 0.0
2018-Apr-10 04:23N 40°52' E 029°12'0 0.0
2018-Apr-10 03:47N 40°52' E 029°12'0 0.0
2018-Apr-10 03:29N 40°52' E 029°12'0 0.0
2018-Apr-10 02:59N 40°52' E 029°12'0 0.0
2018-Apr-10 02:29N 40°52' E 029°12'0 0.0
2018-Apr-10 01:59N 40°52' E 029°12'0 0.0
2018-Apr-10 01:29N 40°52' E 029°12'0 0.0
2018-Apr-10 00:53N 40°52' E 029°12'0 0.0
2018-Apr-10 00:29N 40°52' E 029°12'0 0.0
2018-Apr-09 23:47N 40°52' E 029°12'0 0.0
2018-Apr-09 23:23N 40°52' E 029°12'0 0.1
2018-Apr-09 22:59N 40°52' E 029°12'0 0.0
2018-Apr-09 22:29N 40°52' E 029°12'0 0.2
2018-Apr-09 21:59N 40°51' E 029°12'0 0.2
2018-Apr-09 21:23N 40°51' E 029°12'0 0.1
2018-Apr-09 20:59N 40°52' E 029°12'0 0.3
2018-Apr-09 20:29N 40°52' E 029°12'0 0.1
2018-Apr-09 19:59N 40°52' E 029°12'0 0.2
2018-Apr-09 19:30N 40°52' E 029°12'1 3.0
2018-Apr-09 19:00N 40°50' E 029°11'510.5
2018-Apr-09 18:30N 40°46' E 029°06'611.9
2018-Apr-09 17:59N 40°43' E 028°59'  
2018-Apr-01 16:50N 43°58' E 036°44'511.4
2018-Apr-01 16:26N 44°01' E 036°48'1111.3
2018-Apr-01 15:30N 44°08' E 036°59'611.4
2018-Apr-01 15:00N 44°12' E 037°05'611.3
2018-Apr-01 14:28N 44°16' E 037°12'611.3
2018-Apr-01 13:55N 44°20' E 037°18'511.3
2018-Apr-01 13:30N 44°23' E 037°23'611.5
2018-Apr-01 13:00N 44°27' E 037°29'611.7
2018-Apr-01 12:30N 44°31' E 037°36'611.5
2018-Apr-01 12:00N 44°34' E 037°42'611.5
2018-Apr-01 11:30N 44°38' E 037°48'4 7.9
2018-Apr-01 11:00N 44°42' E 037°49'2 4.8
2018-Apr-01 10:30N 44°44' E 037°48'0 0.2
2018-Apr-01 09:58N 44°44' E 037°48'0 0.0
2018-Apr-01 09:28N 44°44' E 037°48'0 0.0
2018-Apr-01 08:58N 44°44' E 037°48'0 0.0
2018-Apr-01 08:28N 44°44' E 037°48'0 0.0
2018-Apr-01 07:58N 44°44' E 037°48'0 0.0
2018-Apr-01 07:28N 44°44' E 037°48'0 0.0
2018-Apr-01 06:58N 44°44' E 037°48'0 0.0
2018-Apr-01 06:28N 44°44' E 037°48'0 0.0
2018-Apr-01 06:01N 44°44' E 037°48'0 0.0
2018-Apr-01 05:31N 44°44' E 037°48'0 0.0
2018-Apr-01 05:00N 44°44' E 037°48'0 0.0
2018-Apr-01 04:30N 44°44' E 037°48'0 0.0
2018-Apr-01 04:00N 44°44' E 037°48'0 0.0
2018-Apr-01 03:30N 44°44' E 037°48'0 0.0
2018-Apr-01 03:00N 44°44' E 037°48'0 0.0
2018-Apr-01 02:30N 44°44' E 037°48'0 0.0
2018-Apr-01 02:00N 44°44' E 037°48'0 0.0
2018-Apr-01 01:30N 44°44' E 037°48'0 0.0
2018-Apr-01 01:00N 44°44' E 037°48'0 0.0
2018-Apr-01 00:30N 44°44' E 037°48'0 0.0
2018-Apr-01 00:00N 44°44' E 037°48'0 0.0
2018-Mar-31 23:30N 44°44' E 037°48'0 0.0
2018-Mar-31 23:00N 44°44' E 037°48'0 0.0
2018-Mar-31 22:30N 44°44' E 037°48'0 0.0
2018-Mar-31 22:00N 44°44' E 037°48'0 0.0
2018-Mar-31 21:30N 44°44' E 037°48'0 0.0
2018-Mar-31 21:00N 44°44' E 037°48'0 0.0
2018-Mar-31 20:30N 44°44' E 037°48'0 0.0
2018-Mar-31 20:00N 44°44' E 037°48'0 0.0
2018-Mar-31 19:30N 44°44' E 037°48'0 0.0
2018-Mar-31 19:00N 44°44' E 037°48'0 0.0
2018-Mar-31 18:30N 44°44' E 037°48'0 0.0
2018-Mar-31 18:00N 44°44' E 037°48'0 0.0
2018-Mar-31 17:30N 44°44' E 037°48'0 0.0
2018-Mar-31 17:00N 44°44' E 037°48'0 0.0
2018-Mar-31 16:30N 44°44' E 037°48'0 0.0
2018-Mar-31 16:00N 44°44' E 037°48'0 0.0
2018-Mar-31 15:30N 44°44' E 037°48'  
Track history (hours):
 
Tides and Currents Weather Stations Pressure Air Temp Water Temp Dewpoint Dewpoint Depression Visibility Wind Speed Wind Dir Waves Ship Positions

Salacak

Last reported at 2018-Apr-10 15:15 UTC. Time now 2018-Apr-26 17:18 UTC.
Position N 40°51' E 029°12'.
Warning: this ship's position is 16 days out of date.

Length 126 m; draft 5.6 m.

Type: Cargo ship. MMSI: 373532000.

Date/timePositionNaut miles runAvg speedWind from/ knotsBaromVisibWave heightAir tempDewpointWater temp
2018-Apr-10 15:15N 40°51' E 029°12'0 0.0
2018-Apr-10 14:57N 40°51' E 029°12'0 0.1
2018-Apr-10 14:29N 40°51' E 029°12'0 0.1
2018-Apr-10 13:59N 40°52' E 029°12'0 0.0
2018-Apr-10 13:29N 40°52' E 029°12'0 0.0
2018-Apr-10 12:47N 40°51' E 029°12'0 0.0
2018-Apr-10 12:29N 40°51' E 029°12'0 0.0
2018-Apr-10 11:59N 40°51' E 029°12'0 0.0
2018-Apr-10 11:17N 40°51' E 029°12'0 0.0
2018-Apr-10 10:59N 40°51' E 029°12'0 0.0
2018-Apr-10 10:29N 40°52' E 029°12'0 0.0
2018-Apr-10 08:59N 40°52' E 029°12'0 0.0
2018-Apr-10 08:29N 40°52' E 029°12'0 0.0
2018-Apr-10 07:53N 40°52' E 029°12'0 0.1
2018-Apr-10 07:29N 40°52' E 029°12'0 0.0
2018-Apr-10 06:59N 40°52' E 029°12'0 0.0
2018-Apr-10 06:29N 40°52' E 029°12'0 0.1
2018-Apr-10 05:59N 40°52' E 029°12'0 0.0
2018-Apr-10 05:29N 40°52' E 029°12'0 0.0
2018-Apr-10 04:59N 40°52' E 029°12'0 0.0
2018-Apr-10 04:23N 40°52' E 029°12'0 0.0
2018-Apr-10 03:47N 40°52' E 029°12'0 0.0
2018-Apr-10 03:29N 40°52' E 029°12'0 0.0
2018-Apr-10 02:59N 40°52' E 029°12'0 0.0
2018-Apr-10 02:29N 40°52' E 029°12'0 0.0
2018-Apr-10 01:59N 40°52' E 029°12'0 0.0
2018-Apr-10 01:29N 40°52' E 029°12'0 0.0
2018-Apr-10 00:53N 40°52' E 029°12'0 0.0
2018-Apr-10 00:29N 40°52' E 029°12'0 0.0
2018-Apr-09 23:47N 40°52' E 029°12'0 0.0
2018-Apr-09 23:23N 40°52' E 029°12'0 0.1
2018-Apr-09 22:59N 40°52' E 029°12'0 0.0
2018-Apr-09 22:29N 40°52' E 029°12'0 0.2
2018-Apr-09 21:59N 40°51' E 029°12'0 0.2
2018-Apr-09 21:23N 40°51' E 029°12'0 0.1
2018-Apr-09 20:59N 40°52' E 029°12'0 0.3
2018-Apr-09 20:29N 40°52' E 029°12'0 0.1
2018-Apr-09 19:59N 40°52' E 029°12'0 0.2
2018-Apr-09 19:30N 40°52' E 029°12'1 3.0
2018-Apr-09 19:00N 40°50' E 029°11'510.5
2018-Apr-09 18:30N 40°46' E 029°06'611.9
2018-Apr-09 17:59N 40°43' E 028°59'  
2018-Apr-01 16:50N 43°58' E 036°44'511.4
2018-Apr-01 16:26N 44°01' E 036°48'1111.3
2018-Apr-01 15:30N 44°08' E 036°59'611.4
2018-Apr-01 15:00N 44°12' E 037°05'611.3
2018-Apr-01 14:28N 44°16' E 037°12'611.3
2018-Apr-01 13:55N 44°20' E 037°18'511.3
2018-Apr-01 13:30N 44°23' E 037°23'611.5
2018-Apr-01 13:00N 44°27' E 037°29'611.7
2018-Apr-01 12:30N 44°31' E 037°36'611.5
2018-Apr-01 12:00N 44°34' E 037°42'611.5
2018-Apr-01 11:30N 44°38' E 037°48'4 7.9
2018-Apr-01 11:00N 44°42' E 037°49'2 4.8
2018-Apr-01 10:30N 44°44' E 037°48'0 0.2
2018-Apr-01 09:58N 44°44' E 037°48'0 0.0
2018-Apr-01 09:28N 44°44' E 037°48'0 0.0
2018-Apr-01 08:58N 44°44' E 037°48'0 0.0
2018-Apr-01 08:28N 44°44' E 037°48'0 0.0
2018-Apr-01 07:58N 44°44' E 037°48'0 0.0
2018-Apr-01 07:28N 44°44' E 037°48'0 0.0
2018-Apr-01 06:58N 44°44' E 037°48'0 0.0
2018-Apr-01 06:28N 44°44' E 037°48'0 0.0
2018-Apr-01 06:01N 44°44' E 037°48'0 0.0
2018-Apr-01 05:31N 44°44' E 037°48'0 0.0
2018-Apr-01 05:00N 44°44' E 037°48'0 0.0
2018-Apr-01 04:30N 44°44' E 037°48'0 0.0
2018-Apr-01 04:00N 44°44' E 037°48'0 0.0
2018-Apr-01 03:30N 44°44' E 037°48'0 0.0
2018-Apr-01 03:00N 44°44' E 037°48'0 0.0
2018-Apr-01 02:30N 44°44' E 037°48'0 0.0
2018-Apr-01 02:00N 44°44' E 037°48'0 0.0
2018-Apr-01 01:30N 44°44' E 037°48'0 0.0
2018-Apr-01 01:00N 44°44' E 037°48'0 0.0
2018-Apr-01 00:30N 44°44' E 037°48'0 0.0
2018-Apr-01 00:00N 44°44' E 037°48'0 0.0
2018-Mar-31 23:30N 44°44' E 037°48'0 0.0
2018-Mar-31 23:00N 44°44' E 037°48'0 0.0
2018-Mar-31 22:30N 44°44' E 037°48'0 0.0
2018-Mar-31 22:00N 44°44' E 037°48'0 0.0
2018-Mar-31 21:30N 44°44' E 037°48'0 0.0
2018-Mar-31 21:00N 44°44' E 037°48'0 0.0
2018-Mar-31 20:30N 44°44' E 037°48'0 0.0
2018-Mar-31 20:00N 44°44' E 037°48'0 0.0
2018-Mar-31 19:30N 44°44' E 037°48'0 0.0
2018-Mar-31 19:00N 44°44' E 037°48'0 0.0
2018-Mar-31 18:30N 44°44' E 037°48'0 0.0
2018-Mar-31 18:00N 44°44' E 037°48'0 0.0
2018-Mar-31 17:30N 44°44' E 037°48'0 0.0
2018-Mar-31 17:00N 44°44' E 037°48'0 0.0
2018-Mar-31 16:30N 44°44' E 037°48'0 0.0
2018-Mar-31 16:00N 44°44' E 037°48'0 0.0
2018-Mar-31 15:30N 44°44' E 037°48'  

Dump ship's entire track history